Time;durP1;ratioP1;P1;durP2;ratioP2;P2;SDS_P1;SDS_P2;PMS_P1;PMS_P2;Temp;Humidity;BMP_temperature;BMP_pressure;BME280_temperature;BME280_humidity;BME280_pressure;Samples;Min_cycle;Max_cycle;Signal;HPM_P1;HPM_P2
2021/12/02 00:00:50;;;;;;;4.40;1.38;;;4.90;99.90;;;;;;5035709;28;20041;-79
2021/12/02 00:03:17;;;;;;;6.85;2.17;;;5.00;99.90;;;;;;5035276;28;20473;-80
2021/12/02 00:05:44;;;;;;;7.57;1.67;;;4.90;99.90;;;;;;5035217;28;20045;-80
2021/12/02 00:08:10;;;;;;;4.97;2.28;;;4.90;99.90;;;;;;5034472;28;20137;-80
2021/12/02 00:10:37;;;;;;;10.80;1.70;;;5.00;99.90;;;;;;5034056;28;20133;-80
2021/12/02 00:13:04;;;;;;;6.10;1.88;;;4.90;99.90;;;;;;5035608;28;20060;-80
2021/12/02 00:15:35;;;;;;;5.70;2.47;;;5.00;99.90;;;;;;5033991;28;20054;-79
2021/12/02 00:18:29;;;;;;;8.35;1.85;;;5.10;99.90;;;;;;5034065;28;20052;-79
2021/12/02 00:21:04;;;;;;;4.95;2.15;;;5.10;99.90;;;;;;5033701;28;20295;-80
2021/12/02 00:23:33;;;;;;;12.77;2.13;;;5.10;99.90;;;;;;5035310;28;20092;-79
2021/12/02 00:26:00;;;;;;;8.60;2.35;;;5.20;99.90;;;;;;5033950;28;20053;-80
2021/12/02 00:28:26;;;;;;;8.55;1.65;;;5.20;99.90;;;;;;5034910;28;20061;-80
2021/12/02 00:30:53;;;;;;;7.03;2.15;;;5.00;99.90;;;;;;5035056;28;20157;-80
2021/12/02 00:33:20;;;;;;;4.85;1.70;;;4.90;99.90;;;;;;5034741;28;20053;-80
2021/12/02 00:35:47;;;;;;;3.90;1.58;;;4.80;99.90;;;;;;5034677;28;20064;-80
2021/12/02 00:38:13;;;;;;;9.25;2.65;;;4.70;99.90;;;;;;5034647;28;20057;-80
2021/12/02 00:40:40;;;;;;;7.32;2.47;;;4.60;99.90;;;;;;5033601;28;20076;-80
2021/12/02 00:43:07;;;;;;;27.15;4.25;;;4.60;99.90;;;;;;5034514;28;20064;-80
2021/12/02 00:45:34;;;;;;;8.18;2.67;;;4.40;99.90;;;;;;5034008;28;20412;-80
2021/12/02 00:48:00;;;;;;;14.23;2.55;;;4.40;99.90;;;;;;5033909;28;20051;-80
2021/12/02 00:50:27;;;;;;;8.13;2.63;;;4.30;99.90;;;;;;5034468;28;20049;-79
2021/12/02 00:52:54;;;;;;;8.85;1.73;;;4.30;99.90;;;;;;5034243;28;20049;-80
2021/12/02 00:55:21;;;;;;;14.13;2.45;;;4.30;99.90;;;;;;5034875;28;20050;-80
2021/12/02 00:57:47;;;;;;;8.88;1.73;;;4.30;99.90;;;;;;5032988;28;20402;-80
2021/12/02 01:00:14;;;;;;;15.40;2.10;;;4.30;99.90;;;;;;5034284;28;20061;-80
2021/12/02 01:02:41;;;;;;;7.35;2.30;;;4.30;99.90;;;;;;5034213;28;20049;-80
2021/12/02 01:05:07;;;;;;;6.55;1.42;;;4.20;99.90;;;;;;5034732;28;20045;-80
2021/12/02 01:07:34;;;;;;;5.07;1.73;;;4.20;99.90;;;;;;5034126;28;20484;-79
2021/12/02 01:10:01;;;;;;;10.45;1.58;;;4.30;99.90;;;;;;5034154;28;20089;-80
2021/12/02 01:12:27;;;;;;;5.10;1.83;;;4.30;99.90;;;;;;5034097;28;20049;-80
2021/12/02 01:14:54;;;;;;;11.15;1.60;;;4.30;99.90;;;;;;5034220;28;20111;-80
2021/12/02 01:17:21;;;;;;;7.75;1.95;;;4.30;99.90;;;;;;5034557;28;20049;-79
2021/12/02 01:19:48;;;;;;;5.38;1.70;;;4.30;99.90;;;;;;5033312;28;20085;-79
2021/12/02 01:22:14;;;;;;;10.32;1.15;;;4.40;99.90;;;;;;5034388;28;20187;-79
2021/12/02 01:24:41;;;;;;;13.48;2.10;;;4.50;99.90;;;;;;5033639;28;20537;-80
2021/12/02 01:27:08;;;;;;;2.95;0.85;;;4.50;99.90;;;;;;5033877;28;20056;-79
2021/12/02 01:29:34;;;;;;;11.48;1.63;;;4.50;99.90;;;;;;5033461;28;20397;-79
2021/12/02 01:32:05;;;;;;;6.13;1.73;;;4.50;99.90;;;;;;5032587;28;20052;-79
2021/12/02 01:34:32;;;;;;;11.98;1.60;;;4.50;99.90;;;;;;5034090;28;20137;-80
2021/12/02 01:36:58;;;;;;;7.32;0.93;;;4.40;99.90;;;;;;5033534;28;20132;-79
2021/12/02 01:39:25;;;;;;;2.72;1.05;;;4.40;99.90;;;;;;5034101;28;20050;-79
2021/12/02 01:41:52;;;;;;;8.43;1.75;;;4.30;99.90;;;;;;5033609;28;20499;-80
2021/12/02 01:44:19;;;;;;;8.27;1.52;;;4.30;99.90;;;;;;5033562;28;20049;-80
2021/12/02 01:46:46;;;;;;;8.23;1.05;;;4.10;99.90;;;;;;5032025;28;20045;-80
2021/12/02 01:49:13;;;;;;;8.85;1.20;;;4.00;99.90;;;;;;5032523;28;20052;-80
2021/12/02 01:51:40;;;;;;;2.22;0.80;;;4.00;99.90;;;;;;5033449;28;20058;-79
2021/12/02 01:54:07;;;;;;;8.15;1.75;;;3.90;99.90;;;;;;5033232;28;20053;-80
2021/12/02 01:56:34;;;;;;;7.72;2.05;;;3.90;99.90;;;;;;5032777;28;20080;-80
2021/12/02 01:59:00;;;;;;;3.22;1.67;;;3.90;99.90;;;;;;5033930;28;20472;-80
2021/12/02 02:01:27;;;;;;;4.60;1.63;;;3.90;99.90;;;;;;5033850;28;20060;-80
2021/12/02 02:03:54;;;;;;;8.07;1.88;;;3.90;99.90;;;;;;5033301;28;20053;-80
2021/12/02 02:06:20;;;;;;;3.58;1.70;;;3.90;99.90;;;;;;5032314;28;20121;-80
2021/12/02 02:08:47;;;;;;;5.50;1.30;;;4.00;99.90;;;;;;5033978;28;20068;-79
2021/12/02 02:11:14;;;;;;;8.27;1.48;;;4.10;99.90;;;;;;5032300;28;20456;-80
2021/12/02 02:13:44;;;;;;;4.32;1.67;;;4.00;99.90;;;;;;5032168;28;20050;-79
2021/12/02 02:16:10;;;;;;;3.47;1.23;;;4.10;99.90;;;;;;5032891;28;20064;-80
2021/12/02 02:18:38;;;;;;;3.75;1.65;;;4.00;99.90;;;;;;5033667;28;20053;-80
2021/12/02 02:21:08;;;;;;;6.07;1.77;;;3.90;99.90;;;;;;5031605;28;20057;-80
2021/12/02 02:23:37;;;;;;;2.83;1.40;;;3.90;99.90;;;;;;5033792;28;20132;-80
2021/12/02 02:26:04;;;;;;;9.68;2.03;;;3.90;99.90;;;;;;5033029;28;20136;-80
2021/12/02 02:28:31;;;;;;;3.30;1.20;;;4.00;99.90;;;;;;5032137;28;20085;-80
2021/12/02 02:30:58;;;;;;;8.45;1.77;;;4.30;99.90;;;;;;5033828;28;20469;-80
2021/12/02 02:33:25;;;;;;;6.72;1.33;;;4.30;99.90;;;;;;5037684;28;20051;-80
2021/12/02 02:35:52;;;;;;;10.55;1.58;;;4.30;99.90;;;;;;5035968;28;20054;-80
2021/12/02 02:38:20;;;;;;;4.80;1.67;;;4.40;99.90;;;;;;5037673;28;20065;-80
2021/12/02 02:40:48;;;;;;;6.28;1.35;;;4.70;99.90;;;;;;5036035;28;20053;-80
2021/12/02 02:43:21;;;;;;;9.30;1.67;;;4.40;99.90;;;;;;5036889;28;20053;-80
2021/12/02 02:45:48;;;;;;;6.50;1.35;;;4.40;99.90;;;;;;5035558;28;20539;-79
2021/12/02 02:48:15;;;;;;;3.33;1.10;;;4.30;99.90;;;;;;5036863;28;20063;-80
2021/12/02 02:50:41;;;;;;;2.97;1.33;;;4.00;99.90;;;;;;5036640;28;20053;-79
2021/12/02 02:53:08;;;;;;;4.88;0.95;;;3.80;99.90;;;;;;5035514;28;20050;-79
2021/12/02 02:55:36;;;;;;;3.05;1.10;;;3.70;99.90;;;;;;5035626;28;20060;-80
2021/12/02 02:58:07;;;;;;;2.90;1.40;;;3.50;99.90;;;;;;5035542;28;20045;-80
2021/12/02 03:00:38;;;;;;;3.97;0.90;;;3.50;99.90;;;;;;5036504;28;20520;-80
2021/12/02 03:03:20;;;;;;;;;;;3.10;99.90;;;;;;5036938;28;20049;-80
2021/12/02 03:06:01;;;;;;;5.25;1.38;;;2.90;99.90;;;;;;5035152;28;19929;-80
2021/12/02 03:08:38;;;;;;;1.67;0.90;;;2.80;99.90;;;;;;5037064;28;20053;-80
2021/12/02 03:11:05;;;;;;;6.10;1.85;;;2.70;99.90;;;;;;5036698;28;20111;-80
2021/12/02 03:13:39;;;;;;;7.95;1.13;;;2.70;99.90;;;;;;5035344;28;20127;-80
2021/12/02 03:18:51;;;;;;;3.83;1.00;;;2.80;99.90;;;;;;5036144;28;20132;-80
2021/12/02 03:21:18;;;;;;;4.15;1.40;;;2.70;99.90;;;;;;5036508;28;20061;-81
2021/12/02 03:23:45;;;;;;;3.08;1.08;;;2.80;99.90;;;;;;5036021;28;20054;-78
2021/12/02 03:26:11;;;;;;;5.60;0.98;;;2.70;99.90;;;;;;5036758;28;20045;-80
2021/12/02 03:28:38;;;;;;;4.07;0.88;;;2.80;99.90;;;;;;5036061;28;20091;-81
2021/12/02 03:31:04;;;;;;;7.38;0.85;;;2.80;99.90;;;;;;5036390;28;20115;-79
2021/12/02 03:33:31;;;;;;;3.08;0.73;;;2.80;99.90;;;;;;5035976;28;20049;-80
2021/12/02 03:35:57;;;;;;;4.18;0.80;;;2.70;99.90;;;;;;5035181;28;20053;-80
2021/12/02 03:38:24;;;;;;;3.42;0.82;;;2.70;99.90;;;;;;5034853;28;20050;-80
2021/12/02 03:40:50;;;;;;;0.52;0.38;;;2.70;99.90;;;;;;5035937;28;20049;-81
2021/12/02 03:43:17;;;;;;;4.18;0.63;;;2.70;99.90;;;;;;5034774;28;20400;-80
2021/12/02 03:45:43;;;;;;;5.40;0.77;;;2.70;99.90;;;;;;5034718;28;20500;-80
2021/12/02 03:48:10;;;;;;;0.90;0.40;;;2.70;99.90;;;;;;5035508;28;20060;-80
2021/12/02 03:50:36;;;;;;;3.28;0.60;;;2.70;99.90;;;;;;5034495;28;20049;-80
2021/12/02 03:53:03;;;;;;;3.55;0.95;;;2.60;99.90;;;;;;5035463;28;20049;-80
2021/12/02 03:55:29;;;;;;;1.48;0.52;;;2.60;99.90;;;;;;5034505;28;20056;-81
2021/12/02 03:57:56;;;;;;;1.13;0.45;;;2.60;99.90;;;;;;5035392;28;20068;-80
2021/12/02 04:00:23;;;;;;;1.90;0.93;;;2.70;99.90;;;;;;5035970;28;20461;-80
2021/12/02 04:02:50;;;;;;;1.60;0.40;;;2.70;99.90;;;;;;5035397;28;20060;-79
2021/12/02 04:05:17;;;;;;;2.05;0.50;;;2.60;99.90;;;;;;5034151;28;20060;-81
2021/12/02 04:07:43;;;;;;;4.55;0.93;;;2.60;99.90;;;;;;5033616;28;20045;-81
2021/12/02 04:10:10;;;;;;;2.60;0.82;;;2.60;99.90;;;;;;5035244;28;20049;-80
2021/12/02 04:12:47;;;;;;;1.38;0.90;;;2.60;99.90;;;;;;5035226;28;20060;-80
2021/12/02 04:15:17;;;;;;;5.70;1.05;;;2.60;99.90;;;;;;5035557;28;20138;-80
2021/12/02 04:17:44;;;;;;;2.40;0.80;;;2.60;99.90;;;;;;5034063;28;20062;-81
2021/12/02 04:20:10;;;;;;;3.67;0.60;;;2.70;99.90;;;;;;5034031;28;20053;-80
2021/12/02 04:22:37;;;;;;;4.90;0.80;;;2.60;99.90;;;;;;5034378;28;20049;-81
2021/12/02 04:25:03;;;;;;;8.75;1.38;;;2.60;99.90;;;;;;5034279;28;20060;-81
2021/12/02 04:27:30;;;;;;;4.93;0.85;;;2.70;99.90;;;;;;5033657;28;20050;-81
2021/12/02 04:29:56;;;;;;;2.33;1.08;;;2.70;99.90;;;;;;5034889;28;20085;-80
2021/12/02 04:32:23;;;;;;;1.45;0.75;;;2.90;99.90;;;;;;5034903;28;20061;-81
2021/12/02 04:34:49;;;;;;;3.70;0.93;;;2.80;99.90;;;;;;5034829;28;20049;-80
2021/12/02 04:37:16;;;;;;;4.95;1.17;;;2.80;99.90;;;;;;5034645;28;20049;-80
2021/12/02 04:39:42;;;;;;;5.35;1.15;;;2.80;99.90;;;;;;5033858;28;20049;-80
2021/12/02 04:42:09;;;;;;;2.28;0.63;;;2.90;99.90;;;;;;5034708;28;20061;-80
2021/12/02 04:44:36;;;;;;;2.10;0.68;;;3.10;99.90;;;;;;5035059;28;20512;-80
2021/12/02 04:47:02;;;;;;;0.70;0.30;;;3.10;99.90;;;;;;5034917;28;20404;-80
2021/12/02 04:49:29;;;;;;;1.45;0.43;;;3.00;99.90;;;;;;5033597;28;20536;-81
2021/12/02 04:51:55;;;;;;;0.13;0.13;;;2.80;99.90;;;;;;5034962;28;20061;-81
2021/12/02 04:54:22;;;;;;;6.18;0.80;;;2.50;99.90;;;;;;5033226;28;20057;-80
2021/12/02 04:56:48;;;;;;;3.95;0.65;;;2.30;99.90;;;;;;5034184;28;20511;-80
2021/12/02 04:59:15;;;;;;;1.83;0.30;;;2.20;99.90;;;;;;5034727;28;20054;-80
2021/12/02 05:01:41;;;;;;;2.33;0.85;;;2.10;99.90;;;;;;5033266;28;20060;-79
2021/12/02 05:04:08;;;;;;;0.70;0.30;;;2.00;99.90;;;;;;5034240;28;20053;-80
2021/12/02 05:06:35;;;;;;;1.17;0.17;;;2.00;99.90;;;;;;5034231;28;20081;-81
2021/12/02 05:09:02;;;;;;;3.70;0.80;;;2.00;99.90;;;;;;5033124;28;20053;-80
2021/12/02 05:11:28;;;;;;;4.13;0.60;;;2.00;99.90;;;;;;5034149;28;20049;-81
2021/12/02 05:13:55;;;;;;;1.08;0.20;;;1.90;99.90;;;;;;5033352;28;20057;-79
2021/12/02 05:16:21;;;;;;;2.15;0.60;;;1.80;99.90;;;;;;5032997;28;20053;-80
2021/12/02 05:18:48;;;;;;;0.60;0.40;;;1.80;99.90;;;;;;5033948;28;20053;-80
2021/12/02 05:21:14;;;;;;;2.30;0.47;;;1.70;99.90;;;;;;5032690;28;20052;-81
2021/12/02 05:23:41;;;;;;;1.67;0.30;;;1.70;99.90;;;;;;5033954;28;20064;-80
2021/12/02 05:26:07;;;;;;;0.35;0.20;;;1.70;99.90;;;;;;5033692;28;20523;-80
2021/12/02 05:28:34;;;;;;;0.82;0.47;;;1.70;99.90;;;;;;5033825;28;20053;-80
2021/12/02 05:31:00;;;;;;;1.95;0.45;;;1.60;99.90;;;;;;5032718;28;20408;-79
2021/12/02 05:33:27;;;;;;;1.15;0.50;;;1.70;99.90;;;;;;5034178;28;20378;-80
2021/12/02 05:35:54;;;;;;;1.55;0.47;;;1.60;99.90;;;;;;5033752;28;20084;-80
2021/12/02 05:38:20;;;;;;;1.00;0.40;;;1.70;99.90;;;;;;5034101;28;20445;-78
2021/12/02 05:40:47;;;;;;;0.35;0.20;;;1.60;99.90;;;;;;5032826;28;20060;-80
2021/12/02 05:43:13;;;;;;;0.77;0.32;;;1.70;99.90;;;;;;5033751;28;20049;-79
2021/12/02 05:45:40;;;;;;;0.60;0.40;;;1.70;99.90;;;;;;5033671;28;20049;-80
2021/12/02 05:48:07;;;;;;;0.73;0.30;;;1.70;99.90;;;;;;5032168;28;20052;-80
2021/12/02 05:50:33;;;;;;;5.47;0.47;;;1.60;99.90;;;;;;5033749;28;20050;-80
2021/12/02 05:53:00;;;;;;;0.52;0.50;;;1.60;99.90;;;;;;5033479;28;20058;-80
2021/12/02 05:55:26;;;;;;;1.17;0.73;;;1.60;99.90;;;;;;5033493;28;20056;-81
2021/12/02 05:57:53;;;;;;;0.30;0.30;;;1.60;99.90;;;;;;5032729;28;20065;-80
2021/12/02 06:00:20;;;;;;;1.70;0.40;;;1.60;99.90;;;;;;5032420;28;20475;-80
2021/12/02 06:02:46;;;;;;;4.28;0.32;;;1.70;99.90;;;;;;5032432;28;20488;-79
2021/12/02 06:05:17;;;;;;;1.27;0.65;;;1.70;99.90;;;;;;5033401;28;20372;-80
2021/12/02 06:07:44;;;;;;;0.30;0.30;;;1.70;99.90;;;;;;5037498;28;20543;-80
2021/12/02 06:10:10;;;;;;;0.55;0.50;;;1.80;99.90;;;;;;5037386;28;20136;-80
2021/12/02 06:12:37;;;;;;;2.75;0.45;;;1.80;99.90;;;;;;5037458;28;20055;-80
2021/12/02 06:15:03;;;;;;;1.20;0.68;;;1.80;99.90;;;;;;5037706;28;20045;-80
2021/12/02 06:17:30;;;;;;;1.08;0.70;;;1.70;99.90;;;;;;5037437;28;20050;-80
2021/12/02 06:19:56;;;;;;;2.20;0.57;;;1.70;99.90;;;;;;5036186;28;20068;-80
2021/12/02 06:22:23;;;;;;;1.75;0.47;;;1.60;99.90;;;;;;5036022;28;20050;-80
2021/12/02 06:25:05;;;;;;;4.15;0.60;;;1.50;99.90;;;;;;5036255;28;20069;-80
2021/12/02 06:27:31;;;;;;;0.45;0.45;;;1.50;99.90;;;;;;5037217;28;20041;-81
2021/12/02 06:29:58;;;;;;;1.40;0.40;;;1.50;99.90;;;;;;5037110;28;20049;-80
2021/12/02 06:32:24;;;;;;;1.85;0.40;;;1.60;99.90;;;;;;5035773;28;20052;-80
2021/12/02 06:34:51;;;;;;;1.50;0.57;;;1.60;99.90;;;;;;5036678;28;20057;-79
2021/12/02 06:37:18;;;;;;;0.88;0.55;;;1.60;99.90;;;;;;5036842;28;20045;-80
2021/12/02 06:39:44;;;;;;;0.77;0.75;;;1.60;99.90;;;;;;5037008;28;20076;-79
2021/12/02 06:42:11;;;;;;;2.20;0.55;;;1.60;99.90;;;;;;5036811;28;20401;-81
2021/12/02 06:44:37;;;;;;;0.57;0.50;;;1.50;99.90;;;;;;5036814;28;20144;-80
2021/12/02 06:47:04;;;;;;;0.80;0.40;;;1.50;99.90;;;;;;5035541;28;20050;-79
2021/12/02 06:49:32;;;;;;;0.77;0.60;;;1.50;99.90;;;;;;5035949;28;20049;-79
2021/12/02 06:51:59;;;;;;;2.58;0.77;;;1.50;99.90;;;;;;5036724;28;20049;-80
2021/12/02 06:54:26;;;;;;;1.33;0.52;;;1.50;99.90;;;;;;5035603;28;20481;-80
2021/12/02 06:56:52;;;;;;;1.10;0.75;;;1.60;99.90;;;;;;5035615;28;20488;-79
2021/12/02 06:59:19;;;;;;;1.23;0.80;;;1.60;99.90;;;;;;5036423;28;20057;-80
2021/12/02 07:01:46;;;;;;;0.57;0.50;;;1.60;99.90;;;;;;5035759;28;20061;-79
2021/12/02 07:04:12;;;;;;;1.95;1.00;;;1.60;99.90;;;;;;5035422;28;20046;-80
2021/12/02 07:06:40;;;;;;;4.07;1.05;;;1.60;99.90;;;;;;5036440;28;20056;-80
2021/12/02 07:09:06;;;;;;;2.05;0.70;;;1.60;99.90;;;;;;5035477;28;20045;-79
2021/12/02 07:11:33;;;;;;;1.50;0.80;;;1.60;99.90;;;;;;5035307;28;20053;-80
2021/12/02 07:14:03;;;;;;;2.00;0.70;;;1.60;99.90;;;;;;5035558;28;20053;-80
2021/12/02 07:16:29;;;;;;;0.85;0.80;;;1.50;99.90;;;;;;5035020;28;20132;-79
2021/12/02 07:18:57;;;;;;;1.88;1.25;;;1.50;99.90;;;;;;5034751;28;20059;-79
2021/12/02 07:21:24;;;;;;;4.00;1.30;;;1.50;99.90;;;;;;5034717;28;20049;-80
2021/12/02 07:23:51;;;;;;;1.35;1.25;;;1.50;99.90;;;;;;5034856;28;20052;-80
2021/12/02 07:26:17;;;;;;;1.15;0.90;;;1.40;99.90;;;;;;5034868;28;20049;-80
2021/12/02 07:28:44;;;;;;;3.63;1.73;;;1.40;99.90;;;;;;5034735;28;20104;-80
2021/12/02 07:31:11;;;;;;;2.22;1.05;;;1.40;99.90;;;;;;5035063;28;20058;-80
2021/12/02 07:33:37;;;;;;;2.22;1.23;;;1.30;99.90;;;;;;5034813;28;20092;-79
2021/12/02 07:36:04;;;;;;;2.65;1.42;;;1.40;99.90;;;;;;5035861;28;20072;-78
2021/12/02 07:38:30;;;;;;;5.22;1.55;;;1.30;99.90;;;;;;5036342;28;20054;-79
2021/12/02 07:40:57;;;;;;;1.95;1.45;;;1.30;99.90;;;;;;5035826;28;20410;-77
2021/12/02 07:43:23;;;;;;;3.13;1.25;;;1.30;99.90;;;;;;5034614;28;20494;-79
2021/12/02 07:45:50;;;;;;;1.88;1.70;;;1.20;99.90;;;;;;5034651;28;20496;-79
2021/12/02 07:48:16;;;;;;;5.70;1.48;;;1.20;99.90;;;;;;5034293;28;20450;-79
2021/12/02 07:50:43;;;;;;;12.27;1.80;;;1.20;99.90;;;;;;5034605;28;20060;-79
2021/12/02 07:53:09;;;;;;;2.22;1.67;;;1.20;99.90;;;;;;5034488;28;20085;-79
2021/12/02 07:55:36;;;;;;;1.80;1.45;;;1.20;99.90;;;;;;5035566;28;20072;-80
2021/12/02 07:58:03;;;;;;;1.08;0.98;;;1.30;99.90;;;;;;5036118;28;20122;-79
2021/12/02 08:00:29;;;;;;;3.13;1.40;;;1.30;99.90;;;;;;5034532;28;20053;-79
2021/12/02 08:02:56;;;;;;;4.28;1.30;;;1.30;99.90;;;;;;5034487;28;20052;-80
2021/12/02 08:05:23;;;;;;;1.30;1.02;;;1.20;99.90;;;;;;5034318;28;20140;-79
2021/12/02 08:07:49;;;;;;;1.55;1.08;;;1.30;99.90;;;;;;5035175;28;20049;-79
2021/12/02 08:10:16;;;;;;;2.35;1.55;;;1.30;99.90;;;;;;5035261;28;20064;-79
2021/12/02 08:12:47;;;;;;;3.33;1.75;;;1.30;99.90;;;;;;5035252;28;20056;-79
2021/12/02 08:15:13;;;;;;;2.90;1.02;;;1.30;99.90;;;;;;5034551;28;20469;-79
2021/12/02 08:17:40;;;;;;;4.15;1.55;;;1.30;99.90;;;;;;5035249;28;20473;-80
2021/12/02 08:20:06;;;;;;;1.88;1.10;;;1.30;99.90;;;;;;5034759;28;20477;-80
2021/12/02 08:22:33;;;;;;;11.00;1.75;;;1.30;99.90;;;;;;5034810;28;20475;-82
2021/12/02 08:24:59;;;;;;;1.15;0.85;;;1.40;99.90;;;;;;5033932;28;20061;-82
2021/12/02 08:27:26;;;;;;;2.17;0.80;;;1.40;99.90;;;;;;5034416;28;20053;-82
2021/12/02 08:29:52;;;;;;;2.45;1.10;;;1.40;99.90;;;;;;5034265;28;20049;-81
2021/12/02 08:32:19;;;;;;;1.77;0.65;;;1.40;99.90;;;;;;5034809;28;20057;-81
2021/12/02 08:34:45;;;;;;;0.88;0.88;;;1.50;99.90;;;;;;5033812;28;20063;-82
2021/12/02 08:37:12;;;;;;;1.95;1.00;;;1.60;99.90;;;;;;5033561;28;20129;-81
2021/12/02 08:39:41;;;;;;;1.05;0.68;;;1.70;99.90;;;;;;5033424;28;20488;-82
2021/12/02 08:42:09;;;;;;;1.30;0.75;;;1.80;99.90;;;;;;5033729;28;20045;-81
2021/12/02 08:44:40;;;;;;;2.38;0.80;;;1.90;99.90;;;;;;5034175;28;20519;-82
2021/12/02 08:47:09;;;;;;;1.08;0.70;;;2.00;99.90;;;;;;5034671;28;20072;-82
2021/12/02 08:49:35;;;;;;;2.63;0.60;;;2.10;99.90;;;;;;5035131;28;20136;-82
2021/12/02 08:52:02;;;;;;;0.93;0.85;;;2.20;99.90;;;;;;5034426;28;20481;-83
2021/12/02 08:54:28;;;;;;;1.08;0.95;;;2.30;99.90;;;;;;5033268;28;20049;-82
2021/12/02 08:56:55;;;;;;;2.15;0.80;;;2.40;99.90;;;;;;5034267;28;20056;-82
2021/12/02 08:59:22;;;;;;;2.03;0.65;;;2.50;99.90;;;;;;5033246;28;20054;-82
2021/12/02 09:01:48;;;;;;;1.70;0.70;;;2.60;99.90;;;;;;5033293;28;20049;-82
2021/12/02 09:04:15;;;;;;;2.25;1.15;;;2.70;99.90;;;;;;5034057;28;20052;-82
2021/12/02 09:06:41;;;;;;;2.78;0.98;;;2.70;99.90;;;;;;5034113;28;20060;-82
2021/12/02 09:09:08;;;;;;;1.02;0.70;;;2.70;99.90;;;;;;5032775;28;20056;-82
2021/12/02 09:11:34;;;;;;;2.80;1.02;;;2.80;99.90;;;;;;5033686;28;20050;-82
2021/12/02 09:14:02;;;;;;;2.97;1.40;;;2.90;99.90;;;;;;5033077;28;20080;-82
2021/12/02 09:16:29;;;;;;;3.90;1.42;;;3.00;99.90;;;;;;5033827;28;20060;-81
2021/12/02 09:18:55;;;;;;;3.00;0.98;;;3.20;99.90;;;;;;5034003;28;20056;-82
2021/12/02 09:21:22;;;;;;;4.75;0.98;;;3.20;99.90;;;;;;5033703;28;20068;-82
2021/12/02 09:23:49;;;;;;;1.65;1.10;;;3.20;99.90;;;;;;5033838;28;20045;-82
2021/12/02 09:26:15;;;;;;;2.60;1.30;;;3.20;99.90;;;;;;5032558;28;20107;-81
2021/12/02 09:28:42;;;;;;;1.67;0.80;;;3.10;99.90;;;;;;5033654;28;20055;-82
2021/12/02 09:31:08;;;;;;;6.32;0.95;;;3.10;99.90;;;;;;5033819;28;20046;-81
2021/12/02 09:33:35;;;;;;;1.35;1.23;;;3.30;99.90;;;;;;5032837;28;20053;-81
2021/12/02 09:36:01;;;;;;;1.70;1.13;;;3.40;99.90;;;;;;5032959;28;20076;-82
2021/12/02 09:38:28;;;;;;;2.40;1.35;;;3.40;99.90;;;;;;5033564;28;20068;-82
2021/12/02 09:40:54;;;;;;;6.60;1.13;;;3.40;99.90;;;;;;5032928;28;20045;-82
2021/12/02 09:43:21;;;;;;;1.77;1.65;;;3.30;99.90;;;;;;5033558;28;20049;-82
2021/12/02 09:45:47;;;;;;;1.30;1.10;;;3.30;99.90;;;;;;5032265;28;20061;-81
2021/12/02 09:48:14;;;;;;;3.47;1.27;;;3.30;99.90;;;;;;5032349;28;20045;-80
2021/12/02 09:50:51;;;;;;;5.53;1.70;;;3.40;99.90;;;;;;5033531;28;20045;-81
2021/12/02 09:53:21;;;;;;;2.45;1.80;;;3.30;99.90;;;;;;5032837;28;20469;-81
2021/12/02 09:55:52;;;;;;;1.63;1.25;;;3.30;99.90;;;;;;5033195;28;20413;-81
2021/12/02 09:58:24;;;;;;;5.38;2.03;;;3.50;99.90;;;;;;5032686;28;20041;-80
2021/12/02 10:00:54;;;;;;;3.75;1.25;;;3.30;99.90;;;;;;5033002;28;20080;-81
2021/12/02 10:03:31;;;;;;;1.30;0.88;;;3.10;99.90;;;;;;5032416;28;20057;-81
2021/12/02 10:05:58;;;;;;;1.17;0.75;;;3.00;99.90;;;;;;5033937;28;20056;-81
2021/12/02 10:08:26;;;;;;;1.48;0.70;;;3.10;99.90;;;;;;5034006;28;20188;-81
2021/12/02 10:10:55;;;;;;;6.05;0.70;;;3.50;99.90;;;;;;5032567;28;20104;-81
2021/12/02 10:13:27;;;;;;;0.55;0.55;;;3.60;99.90;;;;;;5033240;28;20049;-81
2021/12/02 10:15:56;;;;;;;1.35;0.70;;;3.30;99.90;;;;;;5032320;28;20080;-81
2021/12/02 10:18:26;;;;;;;1.00;1.00;;;3.00;99.90;;;;;;5033558;28;20107;-81
2021/12/02 10:20:52;;;;;;;2.47;0.85;;;2.90;99.90;;;;;;5031717;28;20515;-81
2021/12/02 10:23:21;;;;;;;1.92;1.17;;;3.10;99.90;;;;;;5032731;28;20049;-81
2021/12/02 10:25:47;;;;;;;0.75;0.57;;;3.00;99.90;;;;;;5032908;28;20132;-81
2021/12/02 10:28:14;;;;;;;1.48;0.90;;;3.10;99.90;;;;;;5032687;28;20045;-81
2021/12/02 10:30:40;;;;;;;1.55;0.20;;;3.10;99.90;;;;;;5032891;28;20049;-81
2021/12/02 10:33:07;;;;;;;6.53;0.75;;;3.40;99.90;;;;;;5031646;28;20065;-80
2021/12/02 10:35:34;;;;;;;0.63;0.35;;;3.50;99.90;;;;;;5032733;28;20050;-81
2021/12/02 10:38:00;;;;;;;0.63;0.40;;;3.40;99.90;;;;;;5031688;28;20470;-80
2021/12/02 10:40:27;;;;;;;1.55;0.75;;;3.40;99.90;;;;;;5031688;28;20061;-81
2021/12/02 10:42:53;;;;;;;0.70;0.43;;;3.50;99.90;;;;;;5031426;28;20060;-81
2021/12/02 10:45:20;;;;;;;0.95;0.57;;;3.50;99.90;;;;;;5033039;28;20061;-80
2021/12/02 10:47:46;;;;;;;1.05;0.55;;;3.60;99.90;;;;;;5031984;28;20392;-81
2021/12/02 10:50:13;;;;;;;0.82;0.28;;;3.50;99.90;;;;;;5032262;28;20061;-81
2021/12/02 10:52:39;;;;;;;1.58;0.40;;;3.50;99.90;;;;;;5035368;28;20045;-81
2021/12/02 10:55:07;;;;;;;2.28;0.63;;;3.60;99.90;;;;;;5036102;28;20049;-81
2021/12/02 10:57:34;;;;;;;3.15;0.95;;;3.70;99.90;;;;;;5036085;28;20049;-81
2021/12/02 11:00:00;;;;;;;6.15;0.95;;;3.80;99.90;;;;;;5035349;28;20095;-80
2021/12/02 11:02:27;;;;;;;2.63;0.80;;;4.00;99.90;;;;;;5034967;28;20057;-80
2021/12/02 11:04:56;;;;;;;4.10;0.63;;;4.00;99.90;;;;;;5035730;28;20049;-81
2021/12/02 11:07:22;;;;;;;0.60;0.28;;;4.10;99.90;;;;;;5034873;28;20217;-79
2021/12/02 11:09:49;;;;;;;0.35;0.15;;;4.00;99.90;;;;;;5036394;28;20124;-80
2021/12/02 11:12:16;;;;;;;0.13;0.10;;;3.70;99.90;;;;;;5035053;28;20136;-81
2021/12/02 11:14:42;;;;;;;0.47;0.10;;;3.40;99.90;;;;;;5034986;28;20049;-81
2021/12/02 11:17:09;;;;;;;0.25;0.25;;;3.10;99.90;;;;;;5036373;28;20046;-80
2021/12/02 11:19:36;;;;;;;0.17;0.17;;;3.00;99.90;;;;;;5035856;28;20052;-81
2021/12/02 11:22:02;;;;;;;0.30;0.15;;;2.90;99.90;;;;;;5035818;28;20064;-81
2021/12/02 11:24:29;;;;;;;0.30;0.20;;;2.80;99.90;;;;;;5034846;28;20076;-81
2021/12/02 11:26:55;;;;;;;0.25;0.10;;;2.70;99.90;;;;;;5034946;28;20045;-80
2021/12/02 11:29:22;;;;;;;2.55;0.35;;;2.50;99.90;;;;;;5036519;28;20050;-79
2021/12/02 11:31:48;;;;;;;1.38;0.43;;;2.40;99.90;;;;;;5035808;28;20053;-81
2021/12/02 11:34:15;;;;;;;2.15;0.32;;;2.30;99.90;;;;;;5034608;28;20413;-82
2021/12/02 11:36:41;;;;;;;1.15;0.30;;;2.10;99.90;;;;;;5035519;28;20053;-81
2021/12/02 11:39:08;;;;;;;0.38;0.38;;;2.10;99.90;;;;;;5035554;28;20060;-81
2021/12/02 11:41:34;;;;;;;0.75;0.50;;;2.10;99.90;;;;;;5035275;28;20056;-81
2021/12/02 11:44:01;;;;;;;0.70;0.30;;;2.10;99.90;;;;;;5034607;28;20057;-82
2021/12/02 11:46:27;;;;;;;2.90;0.50;;;2.00;99.90;;;;;;5035091;28;20049;-82
2021/12/02 11:48:54;;;;;;;0.88;0.30;;;1.90;99.90;;;;;;5035175;28;20046;-82
2021/12/02 11:51:21;;;;;;;0.32;0.32;;;1.80;99.90;;;;;;5035267;28;20054;-82
2021/12/02 11:53:47;;;;;;;1.27;0.32;;;1.80;99.90;;;;;;5035118;28;20050;-82
2021/12/02 11:56:14;;;;;;;2.30;0.50;;;1.90;99.90;;;;;;5035188;28;20053;-82
2021/12/02 11:58:40;;;;;;;0.50;0.50;;;1.90;99.90;;;;;;5035173;28;20045;-82
2021/12/02 12:01:08;;;;;;;3.33;0.40;;;1.90;99.90;;;;;;5034365;28;20056;-82
2021/12/02 12:03:34;;;;;;;4.97;0.95;;;2.20;99.90;;;;;;5033073;28;20058;-82
2021/12/02 12:06:01;;;;;;;2.78;0.93;;;2.50;99.90;;;;;;5034976;28;20076;-82
2021/12/02 12:08:27;;;;;;;0.70;0.60;;;2.60;99.90;;;;;;5033621;28;20473;-81
2021/12/02 12:10:54;;;;;;;1.38;0.63;;;2.60;99.90;;;;;;5033964;28;20366;-82
2021/12/02 12:13:21;;;;;;;0.80;0.55;;;2.80;99.90;;;;;;5035366;28;20464;-82
2021/12/02 12:15:48;;;;;;;2.47;0.88;;;2.90;99.90;;;;;;5034050;28;20049;-81
2021/12/02 12:18:14;;;;;;;1.88;1.23;;;2.80;99.90;;;;;;5033923;28;20060;-82
2021/12/02 12:20:41;;;;;;;1.27;0.88;;;2.50;99.90;;;;;;5034503;28;20083;-82
2021/12/02 12:23:07;;;;;;;4.30;0.68;;;2.30;99.90;;;;;;5033840;28;20053;-82
2021/12/02 12:25:34;;;;;;;0.82;0.20;;;2.10;99.90;;;;;;5034277;28;20453;-82
2021/12/02 12:28:02;;;;;;;0.88;0.88;;;2.00;99.90;;;;;;5033402;28;20112;-81
2021/12/02 12:30:28;;;;;;;0.52;0.52;;;2.00;99.90;;;;;;5033595;28;20485;-81
2021/12/02 12:33:04;;;;;;;0.63;0.17;;;2.10;99.90;;;;;;5034522;28;20128;-83
2021/12/02 12:35:39;;;;;;;0.20;0.20;;;2.10;99.90;;;;;;5033599;28;20103;-82
2021/12/02 12:38:06;;;;;;;0.75;0.40;;;2.00;99.90;;;;;;5033370;28;20414;-83
2021/12/02 12:40:33;;;;;;;7.63;0.73;;;1.70;99.90;;;;;;5034232;28;20060;-82
2021/12/02 12:42:59;;;;;;;0.10;0.10;;;1.60;99.90;;;;;;5033292;28;20061;-82
2021/12/02 12:45:26;;;;;;;1.02;0.45;;;1.60;99.90;;;;;;5033042;28;20050;-82
2021/12/02 12:47:52;;;;;;;0.93;0.32;;;1.70;99.90;;;;;;5033981;28;20064;-83
2021/12/02 12:50:19;;;;;;;1.10;0.45;;;1.70;99.90;;;;;;5034122;28;20444;-82
2021/12/02 12:52:45;;;;;;;0.40;0.20;;;1.70;99.90;;;;;;5032930;28;20404;-82
2021/12/02 12:55:12;;;;;;;2.05;0.32;;;1.80;99.90;;;;;;5034642;28;20054;-82
2021/12/02 12:57:39;;;;;;;1.92;0.22;;;1.80;99.90;;;;;;5034421;28;20057;-82
2021/12/02 13:00:05;;;;;;;1.05;0.30;;;1.90;99.90;;;;;;5033737;28;20069;-82